sensor_id;sensor_type;location;lat;lon;timestamp;temperature;humidity
9658;DHT22;4867;48.112;11.622;2023-10-19T00:00:49;8.60;99.90
9658;DHT22;4867;48.112;11.622;2023-10-19T00:03:18;8.60;99.90
9658;DHT22;4867;48.112;11.622;2023-10-19T00:05:46;8.70;99.90
9658;DHT22;4867;48.112;11.622;2023-10-19T00:08:14;8.70;99.90
9658;DHT22;4867;48.112;11.622;2023-10-19T00:10:50;8.70;99.90
9658;DHT22;4867;48.112;11.622;2023-10-19T00:13:29;8.70;99.90
9658;DHT22;4867;48.112;11.622;2023-10-19T00:15:57;8.70;99.90
9658;DHT22;4867;48.112;11.622;2023-10-19T00:18:25;8.70;99.90
9658;DHT22;4867;48.112;11.622;2023-10-19T00:20:53;8.60;99.90
9658;DHT22;4867;48.112;11.622;2023-10-19T00:23:26;8.60;99.90
9658;DHT22;4867;48.112;11.622;2023-10-19T00:25:59;8.60;99.90
9658;DHT22;4867;48.112;11.622;2023-10-19T00:28:27;8.60;99.90
9658;DHT22;4867;48.112;11.622;2023-10-19T00:30:55;8.60;99.90
9658;DHT22;4867;48.112;11.622;2023-10-19T00:33:30;8.50;99.90
9658;DHT22;4867;48.112;11.622;2023-10-19T00:36:00;8.60;99.90
9658;DHT22;4867;48.112;11.622;2023-10-19T00:38:34;8.60;99.90
9658;DHT22;4867;48.112;11.622;2023-10-19T00:41:02;8.70;99.90
9658;DHT22;4867;48.112;11.622;2023-10-19T00:43:41;8.60;99.90
9658;DHT22;4867;48.112;11.622;2023-10-19T00:46:12;8.60;99.90
9658;DHT22;4867;48.112;11.622;2023-10-19T00:48:51;8.70;99.90
9658;DHT22;4867;48.112;11.622;2023-10-19T00:51:25;8.60;99.90
9658;DHT22;4867;48.112;11.622;2023-10-19T00:54:10;8.60;99.90
9658;DHT22;4867;48.112;11.622;2023-10-19T00:56:43;8.70;99.90
9658;DHT22;4867;48.112;11.622;2023-10-19T00:59:18;8.70;99.90
9658;DHT22;4867;48.112;11.622;2023-10-19T01:01:57;8.60;99.90
9658;DHT22;4867;48.112;11.622;2023-10-19T01:04:54;8.70;99.90
9658;DHT22;4867;48.112;11.622;2023-10-19T01:07:34;8.60;99.90
9658;DHT22;4867;48.112;11.622;2023-10-19T01:10:08;8.70;99.90
9658;DHT22;4867;48.112;11.622;2023-10-19T01:12:36;8.70;99.90
9658;DHT22;4867;48.112;11.622;2023-10-19T01:15:15;8.70;99.90
9658;DHT22;4867;48.112;11.622;2023-10-19T01:17:52;8.70;99.90
9658;DHT22;4867;48.112;11.622;2023-10-19T01:20:22;8.70;99.90
9658;DHT22;4867;48.112;11.622;2023-10-19T01:23:03;8.70;99.90
9658;DHT22;4867;48.112;11.622;2023-10-19T01:25:50;8.70;99.90
9658;DHT22;4867;48.112;11.622;2023-10-19T01:28:25;8.60;99.90
9658;DHT22;4867;48.112;11.622;2023-10-19T01:30:55;8.60;99.90
9658;DHT22;4867;48.112;11.622;2023-10-19T01:33:23;8.60;99.90
9658;DHT22;4867;48.112;11.622;2023-10-19T01:35:51;8.60;99.90
9658;DHT22;4867;48.112;11.622;2023-10-19T01:38:39;8.50;99.90
9658;DHT22;4867;48.112;11.622;2023-10-19T01:41:08;8.50;99.90
9658;DHT22;4867;48.112;11.622;2023-10-19T01:43:47;8.50;99.90
9658;DHT22;4867;48.112;11.622;2023-10-19T01:46:22;8.60;99.90
9658;DHT22;4867;48.112;11.622;2023-10-19T01:48:56;8.60;99.90
9658;DHT22;4867;48.112;11.622;2023-10-19T01:51:26;8.70;99.90
9658;DHT22;4867;48.112;11.622;2023-10-19T01:53:55;8.70;99.90
9658;DHT22;4867;48.112;11.622;2023-10-19T01:56:25;8.70;99.90
9658;DHT22;4867;48.112;11.622;2023-10-19T01:58:53;8.70;99.90
9658;DHT22;4867;48.112;11.622;2023-10-19T02:01:22;8.70;99.90
9658;DHT22;4867;48.112;11.622;2023-10-19T02:03:59;8.70;99.90
9658;DHT22;4867;48.112;11.622;2023-10-19T02:06:29;8.70;99.90
9658;DHT22;4867;48.112;11.622;2023-10-19T02:09:06;8.80;99.90
9658;DHT22;4867;48.112;11.622;2023-10-19T02:11:47;8.80;99.90
9658;DHT22;4867;48.112;11.622;2023-10-19T02:14:17;8.90;99.90
9658;DHT22;4867;48.112;11.622;2023-10-19T02:16:49;9.00;99.90
9658;DHT22;4867;48.112;11.622;2023-10-19T02:19:21;8.90;99.90
9658;DHT22;4867;48.112;11.622;2023-10-19T02:21:50;8.90;99.90
9658;DHT22;4867;48.112;11.622;2023-10-19T02:24:19;8.80;99.90
9658;DHT22;4867;48.112;11.622;2023-10-19T02:26:50;8.80;99.90
9658;DHT22;4867;48.112;11.622;2023-10-19T02:29:21;8.80;99.90
9658;DHT22;4867;48.112;11.622;2023-10-19T02:31:49;8.90;99.90
9658;DHT22;4867;48.112;11.622;2023-10-19T02:34:18;8.90;99.90
9658;DHT22;4867;48.112;11.622;2023-10-19T02:36:46;8.90;99.90
9658;DHT22;4867;48.112;11.622;2023-10-19T02:39:15;9.00;99.90
9658;DHT22;4867;48.112;11.622;2023-10-19T02:41:46;9.00;99.90
9658;DHT22;4867;48.112;11.622;2023-10-19T02:44:17;9.00;99.90
9658;DHT22;4867;48.112;11.622;2023-10-19T02:46:46;9.00;99.90
9658;DHT22;4867;48.112;11.622;2023-10-19T02:49:14;9.00;99.90
9658;DHT22;4867;48.112;11.622;2023-10-19T02:51:48;9.10;99.90
9658;DHT22;4867;48.112;11.622;2023-10-19T02:54:18;9.10;99.90
9658;DHT22;4867;48.112;11.622;2023-10-19T02:56:54;9.10;99.90
9658;DHT22;4867;48.112;11.622;2023-10-19T02:59:25;9.30;99.90
9658;DHT22;4867;48.112;11.622;2023-10-19T03:01:56;9.20;99.90
9658;DHT22;4867;48.112;11.622;2023-10-19T03:04:39;9.20;99.90
9658;DHT22;4867;48.112;11.622;2023-10-19T03:07:08;9.20;99.90
9658;DHT22;4867;48.112;11.622;2023-10-19T03:09:35;9.20;99.90
9658;DHT22;4867;48.112;11.622;2023-10-19T03:12:32;9.20;99.90
9658;DHT22;4867;48.112;11.622;2023-10-19T03:14:59;9.20;99.90
9658;DHT22;4867;48.112;11.622;2023-10-19T03:17:27;9.20;99.90
9658;DHT22;4867;48.112;11.622;2023-10-19T03:19:57;9.20;99.90
9658;DHT22;4867;48.112;11.622;2023-10-19T03:22:25;9.20;99.90
9658;DHT22;4867;48.112;11.622;2023-10-19T03:24:54;9.20;99.90
9658;DHT22;4867;48.112;11.622;2023-10-19T03:27:48;9.10;99.90
9658;DHT22;4867;48.112;11.622;2023-10-19T03:30:15;9.10;99.90
9658;DHT22;4867;48.112;11.622;2023-10-19T03:32:46;9.10;99.90
9658;DHT22;4867;48.112;11.622;2023-10-19T03:35:14;9.10;99.90
9658;DHT22;4867;48.112;11.622;2023-10-19T03:37:42;9.10;99.90
9658;DHT22;4867;48.112;11.622;2023-10-19T03:40:10;9.30;99.90
9658;DHT22;4867;48.112;11.622;2023-10-19T03:42:48;9.20;99.90
9658;DHT22;4867;48.112;11.622;2023-10-19T03:45:15;9.20;99.90
9658;DHT22;4867;48.112;11.622;2023-10-19T03:47:43;9.20;99.90
9658;DHT22;4867;48.112;11.622;2023-10-19T03:50:16;9.30;99.90
9658;DHT22;4867;48.112;11.622;2023-10-19T03:52:48;9.40;99.90
9658;DHT22;4867;48.112;11.622;2023-10-19T03:55:15;9.30;99.90
9658;DHT22;4867;48.112;11.622;2023-10-19T03:57:45;9.30;99.90
9658;DHT22;4867;48.112;11.622;2023-10-19T04:00:23;9.20;99.90
9658;DHT22;4867;48.112;11.622;2023-10-19T04:02:55;9.20;99.90
9658;DHT22;4867;48.112;11.622;2023-10-19T04:05:23;9.30;99.90
9658;DHT22;4867;48.112;11.622;2023-10-19T04:07:50;9.20;99.90
9658;DHT22;4867;48.112;11.622;2023-10-19T04:10:22;9.10;99.90
9658;DHT22;4867;48.112;11.622;2023-10-19T04:13:02;9.10;99.90
9658;DHT22;4867;48.112;11.622;2023-10-19T04:15:30;9.10;99.90
9658;DHT22;4867;48.112;11.622;2023-10-19T04:18:03;9.10;99.90
9658;DHT22;4867;48.112;11.622;2023-10-19T04:20:38;9.10;99.90
9658;DHT22;4867;48.112;11.622;2023-10-19T04:23:18;9.20;99.90
9658;DHT22;4867;48.112;11.622;2023-10-19T04:25:45;9.20;99.90
9658;DHT22;4867;48.112;11.622;2023-10-19T04:28:14;9.20;99.90
9658;DHT22;4867;48.112;11.622;2023-10-19T04:30:42;9.10;99.90
9658;DHT22;4867;48.112;11.622;2023-10-19T04:33:09;9.30;99.90
9658;DHT22;4867;48.112;11.622;2023-10-19T04:35:37;9.40;99.90
9658;DHT22;4867;48.112;11.622;2023-10-19T04:38:08;9.20;99.90
9658;DHT22;4867;48.112;11.622;2023-10-19T04:40:35;9.30;99.90
9658;DHT22;4867;48.112;11.622;2023-10-19T04:43:03;9.30;99.90
9658;DHT22;4867;48.112;11.622;2023-10-19T04:45:33;9.30;99.90
9658;DHT22;4867;48.112;11.622;2023-10-19T04:48:01;9.30;99.90
9658;DHT22;4867;48.112;11.622;2023-10-19T04:50:31;9.30;99.90
9658;DHT22;4867;48.112;11.622;2023-10-19T04:52:58;9.30;99.90
9658;DHT22;4867;48.112;11.622;2023-10-19T04:55:26;9.40;99.90
9658;DHT22;4867;48.112;11.622;2023-10-19T04:57:54;9.40;99.90
9658;DHT22;4867;48.112;11.622;2023-10-19T05:00:22;9.40;99.90
9658;DHT22;4867;48.112;11.622;2023-10-19T05:02:51;9.40;99.90
9658;DHT22;4867;48.112;11.622;2023-10-19T05:05:19;9.30;99.90
9658;DHT22;4867;48.112;11.622;2023-10-19T05:07:47;9.40;99.90
9658;DHT22;4867;48.112;11.622;2023-10-19T05:10:14;9.30;99.90
9658;DHT22;4867;48.112;11.622;2023-10-19T05:12:41;9.50;99.90
9658;DHT22;4867;48.112;11.622;2023-10-19T05:15:09;9.50;99.90
9658;DHT22;4867;48.112;11.622;2023-10-19T05:17:36;9.50;99.90
9658;DHT22;4867;48.112;11.622;2023-10-19T05:20:04;9.40;99.90
9658;DHT22;4867;48.112;11.622;2023-10-19T05:22:32;9.60;99.90
9658;DHT22;4867;48.112;11.622;2023-10-19T05:25:00;9.60;99.90
9658;DHT22;4867;48.112;11.622;2023-10-19T05:27:28;9.60;99.90
9658;DHT22;4867;48.112;11.622;2023-10-19T05:29:55;9.70;99.90
9658;DHT22;4867;48.112;11.622;2023-10-19T05:32:23;9.70;99.90
9658;DHT22;4867;48.112;11.622;2023-10-19T05:34:51;9.70;99.90
9658;DHT22;4867;48.112;11.622;2023-10-19T05:37:19;9.70;99.90
9658;DHT22;4867;48.112;11.622;2023-10-19T05:39:46;9.70;99.90
9658;DHT22;4867;48.112;11.622;2023-10-19T05:42:14;9.70;99.90
9658;DHT22;4867;48.112;11.622;2023-10-19T05:44:41;9.70;99.90
9658;DHT22;4867;48.112;11.622;2023-10-19T05:47:08;9.70;99.90
9658;DHT22;4867;48.112;11.622;2023-10-19T05:49:36;9.80;99.90
9658;DHT22;4867;48.112;11.622;2023-10-19T05:52:03;9.70;99.90
9658;DHT22;4867;48.112;11.622;2023-10-19T05:54:30;9.70;99.90
9658;DHT22;4867;48.112;11.622;2023-10-19T05:56:58;9.80;99.90
9658;DHT22;4867;48.112;11.622;2023-10-19T05:59:25;9.80;99.90
9658;DHT22;4867;48.112;11.622;2023-10-19T06:01:53;9.80;99.90
9658;DHT22;4867;48.112;11.622;2023-10-19T06:04:21;9.80;99.90
9658;DHT22;4867;48.112;11.622;2023-10-19T06:06:48;9.90;99.90
9658;DHT22;4867;48.112;11.622;2023-10-19T06:09:16;9.90;99.90
9658;DHT22;4867;48.112;11.622;2023-10-19T06:11:45;9.90;99.90
9658;DHT22;4867;48.112;11.622;2023-10-19T06:14:13;9.90;99.90
9658;DHT22;4867;48.112;11.622;2023-10-19T06:16:40;9.90;99.90
9658;DHT22;4867;48.112;11.622;2023-10-19T06:19:08;9.80;99.90
9658;DHT22;4867;48.112;11.622;2023-10-19T06:21:36;9.90;99.90
9658;DHT22;4867;48.112;11.622;2023-10-19T06:24:04;9.90;99.90
9658;DHT22;4867;48.112;11.622;2023-10-19T06:26:31;9.90;99.90
9658;DHT22;4867;48.112;11.622;2023-10-19T06:28:59;9.90;99.90
9658;DHT22;4867;48.112;11.622;2023-10-19T06:31:27;10.00;99.90
9658;DHT22;4867;48.112;11.622;2023-10-19T06:33:56;9.90;99.90
9658;DHT22;4867;48.112;11.622;2023-10-19T06:36:28;10.00;99.90
9658;DHT22;4867;48.112;11.622;2023-10-19T06:38:59;10.10;99.90
9658;DHT22;4867;48.112;11.622;2023-10-19T06:41:28;10.00;99.90
9658;DHT22;4867;48.112;11.622;2023-10-19T06:43:55;10.10;99.90
9658;DHT22;4867;48.112;11.622;2023-10-19T06:46:22;10.30;99.90
9658;DHT22;4867;48.112;11.622;2023-10-19T06:48:50;10.30;99.90
9658;DHT22;4867;48.112;11.622;2023-10-19T06:51:18;10.30;99.90
9658;DHT22;4867;48.112;11.622;2023-10-19T06:53:45;10.40;99.90
9658;DHT22;4867;48.112;11.622;2023-10-19T06:56:13;10.40;99.90
9658;DHT22;4867;48.112;11.622;2023-10-19T06:58:40;10.50;99.90
9658;DHT22;4867;48.112;11.622;2023-10-19T07:01:08;10.50;99.90
9658;DHT22;4867;48.112;11.622;2023-10-19T07:03:37;10.70;99.90
9658;DHT22;4867;48.112;11.622;2023-10-19T07:06:04;10.70;99.90
9658;DHT22;4867;48.112;11.622;2023-10-19T07:08:40;10.70;99.90
9658;DHT22;4867;48.112;11.622;2023-10-19T07:11:08;10.60;99.90
9658;DHT22;4867;48.112;11.622;2023-10-19T07:13:36;10.80;99.90
9658;DHT22;4867;48.112;11.622;2023-10-19T07:16:04;10.90;99.90
9658;DHT22;4867;48.112;11.622;2023-10-19T07:18:31;11.00;99.90
9658;DHT22;4867;48.112;11.622;2023-10-19T07:20:59;11.10;99.90
9658;DHT22;4867;48.112;11.622;2023-10-19T07:23:33;11.30;99.90
9658;DHT22;4867;48.112;11.622;2023-10-19T07:26:00;11.40;99.90
9658;DHT22;4867;48.112;11.622;2023-10-19T07:28:28;11.50;99.90
9658;DHT22;4867;48.112;11.622;2023-10-19T07:30:56;11.50;99.90
9658;DHT22;4867;48.112;11.622;2023-10-19T07:33:24;11.80;99.90
9658;DHT22;4867;48.112;11.622;2023-10-19T07:35:51;11.80;99.90
9658;DHT22;4867;48.112;11.622;2023-10-19T07:38:23;12.00;99.90
9658;DHT22;4867;48.112;11.622;2023-10-19T07:40:50;12.10;99.90
9658;DHT22;4867;48.112;11.622;2023-10-19T07:43:21;12.20;99.90
9658;DHT22;4867;48.112;11.622;2023-10-19T07:45:49;12.40;99.90
9658;DHT22;4867;48.112;11.622;2023-10-19T07:48:17;12.50;99.90
9658;DHT22;4867;48.112;11.622;2023-10-19T07:50:45;12.60;99.90
9658;DHT22;4867;48.112;11.622;2023-10-19T07:53:12;12.70;99.90
9658;DHT22;4867;48.112;11.622;2023-10-19T07:55:40;12.80;99.90
9658;DHT22;4867;48.112;11.622;2023-10-19T07:58:07;12.80;99.90
9658;DHT22;4867;48.112;11.622;2023-10-19T08:00:35;13.00;99.90
9658;DHT22;4867;48.112;11.622;2023-10-19T08:03:03;13.10;99.90
9658;DHT22;4867;48.112;11.622;2023-10-19T08:05:32;13.20;99.90
9658;DHT22;4867;48.112;11.622;2023-10-19T08:08:01;13.30;99.90
9658;DHT22;4867;48.112;11.622;2023-10-19T08:10:31;13.30;99.90
9658;DHT22;4867;48.112;11.622;2023-10-19T08:12:59;13.50;99.90
9658;DHT22;4867;48.112;11.622;2023-10-19T08:15:27;13.50;99.90
9658;DHT22;4867;48.112;11.622;2023-10-19T08:17:57;13.60;99.90
9658;DHT22;4867;48.112;11.622;2023-10-19T08:20:24;13.70;99.90
9658;DHT22;4867;48.112;11.622;2023-10-19T08:22:58;13.80;99.90
9658;DHT22;4867;48.112;11.622;2023-10-19T08:25:29;14.00;99.90
9658;DHT22;4867;48.112;11.622;2023-10-19T08:28:16;14.10;99.90
9658;DHT22;4867;48.112;11.622;2023-10-19T08:30:44;14.30;99.90
9658;DHT22;4867;48.112;11.622;2023-10-19T08:33:24;14.30;99.90
9658;DHT22;4867;48.112;11.622;2023-10-19T08:35:53;14.40;99.90
9658;DHT22;4867;48.112;11.622;2023-10-19T08:38:21;14.60;99.90
9658;DHT22;4867;48.112;11.622;2023-10-19T08:40:49;14.80;99.90
9658;DHT22;4867;48.112;11.622;2023-10-19T08:43:19;15.00;99.90
9658;DHT22;4867;48.112;11.622;2023-10-19T08:45:46;15.00;99.90
9658;DHT22;4867;48.112;11.622;2023-10-19T08:48:14;15.10;99.90
9658;DHT22;4867;48.112;11.622;2023-10-19T08:50:41;15.20;99.90
9658;DHT22;4867;48.112;11.622;2023-10-19T08:53:09;15.30;99.90
9658;DHT22;4867;48.112;11.622;2023-10-19T08:55:37;15.30;99.90
9658;DHT22;4867;48.112;11.622;2023-10-19T08:58:16;15.40;99.90
9658;DHT22;4867;48.112;11.622;2023-10-19T09:00:49;15.50;99.90
9658;DHT22;4867;48.112;11.622;2023-10-19T09:03:24;15.70;99.90
9658;DHT22;4867;48.112;11.622;2023-10-19T09:05:54;15.70;99.90
9658;DHT22;4867;48.112;11.622;2023-10-19T09:08:22;15.90;99.90
9658;DHT22;4867;48.112;11.622;2023-10-19T09:10:50;16.00;99.90
9658;DHT22;4867;48.112;11.622;2023-10-19T09:13:22;16.00;99.90
9658;DHT22;4867;48.112;11.622;2023-10-19T09:15:51;16.10;99.90
9658;DHT22;4867;48.112;11.622;2023-10-19T09:18:24;16.10;99.90
9658;DHT22;4867;48.112;11.622;2023-10-19T09:20:56;16.20;99.90
9658;DHT22;4867;48.112;11.622;2023-10-19T09:23:33;16.30;99.90
9658;DHT22;4867;48.112;11.622;2023-10-19T09:26:01;16.40;99.90
9658;DHT22;4867;48.112;11.622;2023-10-19T09:28:31;16.40;99.90
9658;DHT22;4867;48.112;11.622;2023-10-19T09:31:02;16.50;99.90
9658;DHT22;4867;48.112;11.622;2023-10-19T09:33:33;16.50;99.90
9658;DHT22;4867;48.112;11.622;2023-10-19T09:36:02;16.50;99.90
9658;DHT22;4867;48.112;11.622;2023-10-19T09:38:32;16.50;99.90
9658;DHT22;4867;48.112;11.622;2023-10-19T09:41:00;16.50;99.90
9658;DHT22;4867;48.112;11.622;2023-10-19T09:43:45;16.50;99.90
9658;DHT22;4867;48.112;11.622;2023-10-19T09:46:24;16.50;99.90
9658;DHT22;4867;48.112;11.622;2023-10-19T09:48:53;16.50;99.90
9658;DHT22;4867;48.112;11.622;2023-10-19T09:51:21;16.60;99.90
9658;DHT22;4867;48.112;11.622;2023-10-19T09:56:50;16.70;99.90
9658;DHT22;4867;48.112;11.622;2023-10-19T09:59:26;16.70;99.90
9658;DHT22;4867;48.112;11.622;2023-10-19T10:02:13;16.90;99.90
9658;DHT22;4867;48.112;11.622;2023-10-19T10:04:42;17.10;99.90
9658;DHT22;4867;48.112;11.622;2023-10-19T10:07:13;17.20;99.90
9658;DHT22;4867;48.112;11.622;2023-10-19T10:09:48;17.40;99.90
9658;DHT22;4867;48.112;11.622;2023-10-19T10:12:19;17.40;99.90
9658;DHT22;4867;48.112;11.622;2023-10-19T10:15:05;17.40;99.90
9658;DHT22;4867;48.112;11.622;2023-10-19T10:17:37;17.40;99.90
9658;DHT22;4867;48.112;11.622;2023-10-19T10:22:42;17.40;99.90
9658;DHT22;4867;48.112;11.622;2023-10-19T10:25:30;17.50;99.90
9658;DHT22;4867;48.112;11.622;2023-10-19T10:27:58;17.50;99.90
9658;DHT22;4867;48.112;11.622;2023-10-19T10:30:26;17.60;99.90
9658;DHT22;4867;48.112;11.622;2023-10-19T10:32:53;17.70;99.90
9658;DHT22;4867;48.112;11.622;2023-10-19T10:38:10;17.80;99.90
9658;DHT22;4867;48.112;11.622;2023-10-19T10:40:47;17.80;99.90
9658;DHT22;4867;48.112;11.622;2023-10-19T10:43:19;17.90;99.90
9658;DHT22;4867;48.112;11.622;2023-10-19T10:45:48;18.00;99.90
9658;DHT22;4867;48.112;11.622;2023-10-19T10:48:17;18.00;99.90
9658;DHT22;4867;48.112;11.622;2023-10-19T10:50:46;18.00;99.90
9658;DHT22;4867;48.112;11.622;2023-10-19T10:53:14;18.10;99.90
9658;DHT22;4867;48.112;11.622;2023-10-19T10:55:45;18.00;99.90
9658;DHT22;4867;48.112;11.622;2023-10-19T10:58:19;18.10;99.90
9658;DHT22;4867;48.112;11.622;2023-10-19T11:00:47;18.20;99.90
9658;DHT22;4867;48.112;11.622;2023-10-19T11:03:16;18.20;99.90
9658;DHT22;4867;48.112;11.622;2023-10-19T11:05:43;18.30;99.90
9658;DHT22;4867;48.112;11.622;2023-10-19T11:08:17;18.40;99.90
9658;DHT22;4867;48.112;11.622;2023-10-19T11:10:46;18.50;99.90
9658;DHT22;4867;48.112;11.622;2023-10-19T11:13:15;18.60;99.90
9658;DHT22;4867;48.112;11.622;2023-10-19T11:15:51;18.70;99.90
9658;DHT22;4867;48.112;11.622;2023-10-19T11:18:40;18.80;99.90
9658;DHT22;4867;48.112;11.622;2023-10-19T11:21:11;18.80;99.90
9658;DHT22;4867;48.112;11.622;2023-10-19T11:26:13;19.10;99.90
9658;DHT22;4867;48.112;11.622;2023-10-19T11:28:41;19.20;99.90
9658;DHT22;4867;48.112;11.622;2023-10-19T11:33:46;19.30;99.90
9658;DHT22;4867;48.112;11.622;2023-10-19T11:36:17;19.30;99.90
9658;DHT22;4867;48.112;11.622;2023-10-19T11:38:47;19.20;99.90
9658;DHT22;4867;48.112;11.622;2023-10-19T11:41:15;19.20;99.90
9658;DHT22;4867;48.112;11.622;2023-10-19T11:43:44;19.10;99.90
9658;DHT22;4867;48.112;11.622;2023-10-19T11:46:12;19.00;99.90
9658;DHT22;4867;48.112;11.622;2023-10-19T11:48:42;18.90;99.90
9658;DHT22;4867;48.112;11.622;2023-10-19T11:51:12;18.90;99.90
9658;DHT22;4867;48.112;11.622;2023-10-19T11:53:41;18.90;99.90
9658;DHT22;4867;48.112;11.622;2023-10-19T11:56:11;18.90;99.90
9658;DHT22;4867;48.112;11.622;2023-10-19T11:58:43;18.90;99.90
9658;DHT22;4867;48.112;11.622;2023-10-19T12:01:14;18.90;99.90
9658;DHT22;4867;48.112;11.622;2023-10-19T12:03:44;19.00;99.90
9658;DHT22;4867;48.112;11.622;2023-10-19T12:06:16;18.90;99.90
9658;DHT22;4867;48.112;11.622;2023-10-19T12:08:47;18.90;99.90
9658;DHT22;4867;48.112;11.622;2023-10-19T12:11:15;18.90;99.90
9658;DHT22;4867;48.112;11.622;2023-10-19T12:13:43;19.00;99.90
9658;DHT22;4867;48.112;11.622;2023-10-19T12:16:11;19.10;99.90
9658;DHT22;4867;48.112;11.622;2023-10-19T12:18:45;19.30;99.90
9658;DHT22;4867;48.112;11.622;2023-10-19T12:21:13;19.50;99.90
9658;DHT22;4867;48.112;11.622;2023-10-19T12:23:42;19.50;99.90
9658;DHT22;4867;48.112;11.622;2023-10-19T12:26:18;19.30;99.90
9658;DHT22;4867;48.112;11.622;2023-10-19T12:28:47;19.20;99.90
9658;DHT22;4867;48.112;11.622;2023-10-19T12:31:16;19.10;99.90
9658;DHT22;4867;48.112;11.622;2023-10-19T12:33:46;19.10;99.90
9658;DHT22;4867;48.112;11.622;2023-10-19T12:36:14;19.00;99.90
9658;DHT22;4867;48.112;11.622;2023-10-19T12:38:53;19.10;99.90
9658;DHT22;4867;48.112;11.622;2023-10-19T12:41:22;19.20;99.90
9658;DHT22;4867;48.112;11.622;2023-10-19T12:43:49;19.30;99.90
9658;DHT22;4867;48.112;11.622;2023-10-19T12:46:24;19.50;99.90
9658;DHT22;4867;48.112;11.622;2023-10-19T12:48:56;19.60;99.90
9658;DHT22;4867;48.112;11.622;2023-10-19T12:51:25;19.60;99.90
9658;DHT22;4867;48.112;11.622;2023-10-19T12:53:53;19.60;99.90
9658;DHT22;4867;48.112;11.622;2023-10-19T12:56:21;19.60;99.90
9658;DHT22;4867;48.112;11.622;2023-10-19T12:58:51;19.70;99.90
9658;DHT22;4867;48.112;11.622;2023-10-19T13:01:18;19.80;99.90
9658;DHT22;4867;48.112;11.622;2023-10-19T13:03:48;19.80;99.90
9658;DHT22;4867;48.112;11.622;2023-10-19T13:06:18;19.80;99.90
9658;DHT22;4867;48.112;11.622;2023-10-19T13:08:46;19.80;99.90
9658;DHT22;4867;48.112;11.622;2023-10-19T13:11:14;19.80;99.90
9658;DHT22;4867;48.112;11.622;2023-10-19T13:13:45;19.90;99.90
9658;DHT22;4867;48.112;11.622;2023-10-19T13:16:15;20.00;99.90
9658;DHT22;4867;48.112;11.622;2023-10-19T13:18:43;19.90;99.90
9658;DHT22;4867;48.112;11.622;2023-10-19T13:21:11;19.90;99.90
9658;DHT22;4867;48.112;11.622;2023-10-19T13:23:43;19.80;99.90
9658;DHT22;4867;48.112;11.622;2023-10-19T13:26:11;19.70;99.90
9658;DHT22;4867;48.112;11.622;2023-10-19T13:28:45;19.60;99.90
9658;DHT22;4867;48.112;11.622;2023-10-19T13:31:14;19.50;99.90
9658;DHT22;4867;48.112;11.622;2023-10-19T13:33:41;19.40;99.90
9658;DHT22;4867;48.112;11.622;2023-10-19T13:36:08;19.30;99.90
9658;DHT22;4867;48.112;11.622;2023-10-19T13:38:36;19.30;99.90
9658;DHT22;4867;48.112;11.622;2023-10-19T13:41:07;19.20;99.90
9658;DHT22;4867;48.112;11.622;2023-10-19T13:43:40;19.20;99.90
9658;DHT22;4867;48.112;11.622;2023-10-19T13:46:09;19.20;99.90
9658;DHT22;4867;48.112;11.622;2023-10-19T13:48:37;19.10;99.90
9658;DHT22;4867;48.112;11.622;2023-10-19T13:51:06;19.00;99.90
9658;DHT22;4867;48.112;11.622;2023-10-19T13:53:41;19.00;99.90
9658;DHT22;4867;48.112;11.622;2023-10-19T13:56:09;18.90;99.90
9658;DHT22;4867;48.112;11.622;2023-10-19T13:58:38;18.80;99.90
9658;DHT22;4867;48.112;11.622;2023-10-19T14:01:09;18.70;99.90
9658;DHT22;4867;48.112;11.622;2023-10-19T14:03:41;18.60;99.90
9658;DHT22;4867;48.112;11.622;2023-10-19T14:06:13;18.50;99.90
9658;DHT22;4867;48.112;11.622;2023-10-19T14:08:40;18.50;99.90
9658;DHT22;4867;48.112;11.622;2023-10-19T14:11:08;18.40;99.90
9658;DHT22;4867;48.112;11.622;2023-10-19T14:13:35;18.30;99.90
9658;DHT22;4867;48.112;11.622;2023-10-19T14:16:06;18.30;99.90
9658;DHT22;4867;48.112;11.622;2023-10-19T14:18:36;18.20;99.90
9658;DHT22;4867;48.112;11.622;2023-10-19T14:21:17;18.10;99.90
9658;DHT22;4867;48.112;11.622;2023-10-19T14:23:45;18.10;99.90
9658;DHT22;4867;48.112;11.622;2023-10-19T14:26:13;18.00;99.90
9658;DHT22;4867;48.112;11.622;2023-10-19T14:28:41;18.00;99.90
9658;DHT22;4867;48.112;11.622;2023-10-19T14:31:09;17.90;99.90
9658;DHT22;4867;48.112;11.622;2023-10-19T14:33:38;17.90;99.90
9658;DHT22;4867;48.112;11.622;2023-10-19T14:36:06;17.90;99.90
9658;DHT22;4867;48.112;11.622;2023-10-19T14:38:33;18.00;99.90
9658;DHT22;4867;48.112;11.622;2023-10-19T14:41:00;18.00;99.90
9658;DHT22;4867;48.112;11.622;2023-10-19T14:43:28;18.00;99.90
9658;DHT22;4867;48.112;11.622;2023-10-19T14:45:57;17.90;99.90
9658;DHT22;4867;48.112;11.622;2023-10-19T14:48:24;17.80;99.90
9658;DHT22;4867;48.112;11.622;2023-10-19T14:50:51;17.70;99.90
9658;DHT22;4867;48.112;11.622;2023-10-19T14:53:21;17.60;99.90
9658;DHT22;4867;48.112;11.622;2023-10-19T14:55:49;17.60;99.90
9658;DHT22;4867;48.112;11.622;2023-10-19T14:58:17;17.50;99.90
9658;DHT22;4867;48.112;11.622;2023-10-19T15:00:44;17.40;99.90
9658;DHT22;4867;48.112;11.622;2023-10-19T15:03:22;17.30;99.90
9658;DHT22;4867;48.112;11.622;2023-10-19T15:05:51;17.10;99.90
9658;DHT22;4867;48.112;11.622;2023-10-19T15:08:20;17.00;99.90
9658;DHT22;4867;48.112;11.622;2023-10-19T15:10:47;17.00;99.90
9658;DHT22;4867;48.112;11.622;2023-10-19T15:13:15;17.00;99.90
9658;DHT22;4867;48.112;11.622;2023-10-19T15:15:42;16.80;99.90
9658;DHT22;4867;48.112;11.622;2023-10-19T15:18:10;16.80;99.90
9658;DHT22;4867;48.112;11.622;2023-10-19T15:20:37;16.80;99.90
9658;DHT22;4867;48.112;11.622;2023-10-19T15:23:05;16.70;99.90
9658;DHT22;4867;48.112;11.622;2023-10-19T15:25:32;16.70;99.90
9658;DHT22;4867;48.112;11.622;2023-10-19T15:28:00;16.70;99.90
9658;DHT22;4867;48.112;11.622;2023-10-19T15:30:27;16.60;99.90
9658;DHT22;4867;48.112;11.622;2023-10-19T15:32:55;16.50;99.90
9658;DHT22;4867;48.112;11.622;2023-10-19T15:35:22;16.50;99.90
9658;DHT22;4867;48.112;11.622;2023-10-19T15:37:53;16.40;99.90
9658;DHT22;4867;48.112;11.622;2023-10-19T15:40:24;16.40;99.90
9658;DHT22;4867;48.112;11.622;2023-10-19T15:42:53;16.40;99.90
9658;DHT22;4867;48.112;11.622;2023-10-19T15:45:26;16.40;99.90
9658;DHT22;4867;48.112;11.622;2023-10-19T15:47:53;16.40;99.90
9658;DHT22;4867;48.112;11.622;2023-10-19T15:50:26;16.30;99.90
9658;DHT22;4867;48.112;11.622;2023-10-19T15:52:55;16.30;99.90
9658;DHT22;4867;48.112;11.622;2023-10-19T15:55:22;16.20;99.90
9658;DHT22;4867;48.112;11.622;2023-10-19T15:57:50;16.20;99.90
9658;DHT22;4867;48.112;11.622;2023-10-19T16:00:18;16.10;99.90
9658;DHT22;4867;48.112;11.622;2023-10-19T16:02:48;16.00;99.90
9658;DHT22;4867;48.112;11.622;2023-10-19T16:05:16;15.90;99.90
9658;DHT22;4867;48.112;11.622;2023-10-19T16:07:44;16.00;99.90
9658;DHT22;4867;48.112;11.622;2023-10-19T16:10:12;15.90;99.90
9658;DHT22;4867;48.112;11.622;2023-10-19T16:12:41;15.90;99.90
9658;DHT22;4867;48.112;11.622;2023-10-19T16:15:10;15.80;99.90
9658;DHT22;4867;48.112;11.622;2023-10-19T16:17:37;15.80;99.90
9658;DHT22;4867;48.112;11.622;2023-10-19T16:20:06;15.80;99.90
9658;DHT22;4867;48.112;11.622;2023-10-19T16:22:35;15.70;99.90
9658;DHT22;4867;48.112;11.622;2023-10-19T16:25:03;15.70;99.90